UAL1975 KLAS-KEWR
Flight info
| Callsign | UAL1975 |
|---|---|
| Flight time | N/A |
| Altitude | 37000 |
| Route | GIDGT3 TUKRR DVC HBU MCK OVR DSM EVOTE NELLS KEEHO J584 SLT FQM3 |
| Aircraft | B38M/M-SDE1FGHILORVWXY/HB1 |
Departure
| Time | N/A |
|---|---|
| Airport | Harry Reid International Airport (KLAS) |
Arrival
| Time | 2026-05-05 23:09 |
|---|---|
| Airport | Newark Liberty International Airport (KEWR) |
| Time | Latitude | Longitude | Altitude | Speed | Heading |
|---|---|---|---|---|---|
| 2026-05-05 22:42 | 41.36440 | -76.94696 | 28907 ft | 475 kts | 104° |
| 2026-05-05 22:42 | 41.35797 | -76.90394 | 28453 ft | 469 kts | 104° |
| 2026-05-05 22:42 | 41.35161 | -76.86144 | 27936 ft | 465 kts | 104° |
| 2026-05-05 22:43 | 41.34537 | -76.81984 | 27482 ft | 461 kts | 104° |
| 2026-05-05 22:43 | 41.33897 | -76.77830 | 27027 ft | 455 kts | 107° |
| 2026-05-05 22:43 | 41.32905 | -76.73866 | 26511 ft | 449 kts | 114° |
| 2026-05-05 22:43 | 41.31857 | -76.69972 | 26102 ft | 444 kts | 114° |
| 2026-05-05 22:44 | 41.30828 | -76.66120 | 25666 ft | 440 kts | 114° |
| 2026-05-05 22:44 | 41.29808 | -76.62306 | 25220 ft | 436 kts | 114° |
| 2026-05-05 22:44 | 41.28792 | -76.58512 | 24784 ft | 433 kts | 114° |
| 2026-05-05 22:44 | 41.27785 | -76.54759 | 24360 ft | 429 kts | 114° |
| 2026-05-05 22:45 | 41.26785 | -76.51035 | 23944 ft | 426 kts | 114° |
| 2026-05-05 22:45 | 41.25805 | -76.47390 | 23513 ft | 423 kts | 114° |
| 2026-05-05 22:45 | 41.24814 | -76.43709 | 23046 ft | 419 kts | 114° |
| 2026-05-05 22:45 | 41.23831 | -76.40066 | 22595 ft | 416 kts | 114° |
| 2026-05-05 22:46 | 41.22859 | -76.36464 | 22173 ft | 412 kts | 114° |
| 2026-05-05 22:46 | 41.21903 | -76.32934 | 21779 ft | 408 kts | 114° |
| 2026-05-05 22:46 | 41.20944 | -76.29392 | 21376 ft | 405 kts | 114° |
| 2026-05-05 22:46 | 41.20001 | -76.25916 | 20994 ft | 401 kts | 114° |
| 2026-05-05 22:47 | 41.19054 | -76.22430 | 20588 ft | 399 kts | 114° |
| 2026-05-05 22:47 | 41.18112 | -76.18969 | 20165 ft | 398 kts | 114° |
| 2026-05-05 22:47 | 41.17173 | -76.15524 | 19780 ft | 395 kts | 114° |
| 2026-05-05 22:47 | 41.16239 | -76.12098 | 19392 ft | 393 kts | 114° |
| 2026-05-05 22:48 | 41.15309 | -76.08697 | 19009 ft | 391 kts | 114° |
| 2026-05-05 22:48 | 41.14381 | -76.05306 | 18596 ft | 389 kts | 114° |
| 2026-05-05 22:48 | 41.13467 | -76.01970 | 18198 ft | 389 kts | 114° |
| 2026-05-05 22:48 | 41.12540 | -75.98595 | 17747 ft | 386 kts | 114° |
| 2026-05-05 22:49 | 41.11624 | -75.95259 | 17437 ft | 381 kts | 114° |
| 2026-05-05 22:49 | 41.10721 | -75.91979 | 17045 ft | 376 kts | 114° |
| 2026-05-05 22:49 | 41.09835 | -75.88762 | 16679 ft | 374 kts | 114° |
| 2026-05-05 22:49 | 41.08942 | -75.85525 | 16301 ft | 371 kts | 114° |
| 2026-05-05 22:50 | 41.08056 | -75.82319 | 15921 ft | 368 kts | 114° |
| 2026-05-05 22:50 | 41.07472 | -75.80204 | 15669 ft | 367 kts | 114° |
| 2026-05-05 22:50 | 41.06593 | -75.77031 | 15281 ft | 365 kts | 114° |
| 2026-05-05 22:50 | 41.05437 | -75.72860 | 14810 ft | 363 kts | 114° |
| 2026-05-05 22:51 | 41.04566 | -75.69722 | 14463 ft | 362 kts | 114° |
| 2026-05-05 22:51 | 41.03988 | -75.67644 | 14204 ft | 361 kts | 113° |
| 2026-05-05 22:51 | 41.02833 | -75.63493 | 13700 ft | 361 kts | 113° |
| 2026-05-05 22:51 | 41.02243 | -75.61374 | 13416 ft | 361 kts | 114° |
| 2026-05-05 22:52 | 41.01386 | -75.58298 | 13047 ft | 359 kts | 114° |
| 2026-05-05 22:52 | 41.00533 | -75.55243 | 13011 ft | 345 kts | 114° |
| 2026-05-05 22:52 | 40.99715 | -75.52315 | 13041 ft | 335 kts | 114° |
| 2026-05-05 22:52 | 40.98908 | -75.49429 | 13039 ft | 333 kts | 114° |
| 2026-05-05 22:53 | 40.98112 | -75.46584 | 13021 ft | 333 kts | 114° |
| 2026-05-05 22:53 | 40.97308 | -75.43713 | 13028 ft | 333 kts | 114° |
| 2026-05-05 22:53 | 40.96497 | -75.40829 | 13013 ft | 334 kts | 113° |
| 2026-05-05 22:53 | 40.95688 | -75.37941 | 13041 ft | 334 kts | 114° |
| 2026-05-05 22:54 | 40.94878 | -75.35060 | 13024 ft | 334 kts | 114° |
| 2026-05-05 22:54 | 40.94066 | -75.32177 | 13021 ft | 334 kts | 114° |
| 2026-05-05 22:54 | 40.93263 | -75.29328 | 13023 ft | 334 kts | 114° |
| 2026-05-05 22:54 | 40.92451 | -75.26450 | 13022 ft | 334 kts | 114° |
| 2026-05-05 22:55 | 40.91639 | -75.23576 | 13032 ft | 331 kts | 114° |
| 2026-05-05 22:55 | 40.90835 | -75.20732 | 12976 ft | 330 kts | 114° |
| 2026-05-05 22:55 | 40.90027 | -75.17877 | 12635 ft | 333 kts | 114° |
| 2026-05-05 22:55 | 40.89205 | -75.14978 | 12060 ft | 338 kts | 114° |
| 2026-05-05 22:56 | 40.88387 | -75.12091 | 11489 ft | 341 kts | 114° |
| 2026-05-05 22:56 | 40.87560 | -75.09161 | 10854 ft | 340 kts | 114° |
| 2026-05-05 22:56 | 40.86738 | -75.06247 | 10363 ft | 334 kts | 114° |
| 2026-05-05 22:56 | 40.85937 | -75.03409 | 9975 ft | 325 kts | 114° |
| 2026-05-05 22:57 | 40.85156 | -75.00647 | 9581 ft | 317 kts | 115° |
| 2026-05-05 22:57 | 40.84403 | -74.97985 | 9156 ft | 310 kts | 115° |
| 2026-05-05 22:57 | 40.83654 | -74.95342 | 8698 ft | 305 kts | 115° |
| 2026-05-05 22:57 | 40.82911 | -74.92727 | 8315 ft | 304 kts | 115° |
| 2026-05-05 22:58 | 40.82319 | -74.90020 | 7875 ft | 312 kts | 101° |
| 2026-05-05 22:58 | 40.82278 | -74.87128 | 7477 ft | 317 kts | 89° |
| 2026-05-05 22:58 | 40.82443 | -74.84208 | 7121 ft | 319 kts | 88° |
| 2026-05-05 22:58 | 40.82627 | -74.81319 | 6994 ft | 310 kts | 88° |
| 2026-05-05 22:59 | 40.82802 | -74.78521 | 6987 ft | 303 kts | 88° |
| 2026-05-05 22:59 | 40.82975 | -74.75743 | 6979 ft | 303 kts | 88° |
| 2026-05-05 22:59 | 40.83152 | -74.72968 | 6798 ft | 303 kts | 88° |
| 2026-05-05 22:59 | 40.83337 | -74.70202 | 6591 ft | 302 kts | 88° |
| 2026-05-05 23:00 | 40.83698 | -74.64711 | 6146 ft | 301 kts | 88° |
| 2026-05-05 23:00 | 40.83884 | -74.61962 | 5949 ft | 300 kts | 87° |
| 2026-05-05 23:00 | 40.84075 | -74.59223 | 5723 ft | 299 kts | 88° |
| 2026-05-05 23:01 | 40.84277 | -74.56496 | 5500 ft | 297 kts | 88° |
| 2026-05-05 23:01 | 40.84478 | -74.53777 | 5279 ft | 296 kts | 88° |
| 2026-05-05 23:01 | 40.84689 | -74.51074 | 5079 ft | 295 kts | 88° |
| 2026-05-05 23:01 | 40.84907 | -74.48383 | 4853 ft | 293 kts | 87° |
| 2026-05-05 23:02 | 40.85121 | -74.45717 | 4635 ft | 290 kts | 88° |
| 2026-05-05 23:02 | 40.85355 | -74.43065 | 4416 ft | 289 kts | 87° |
| 2026-05-05 23:02 | 40.85585 | -74.40436 | 4182 ft | 288 kts | 88° |
| 2026-05-05 23:02 | 40.85815 | -74.37840 | 3965 ft | 287 kts | 88° |
| 2026-05-05 23:03 | 40.86049 | -74.35223 | 3752 ft | 286 kts | 87° |
| 2026-05-05 23:03 | 40.86245 | -74.32617 | 3531 ft | 282 kts | 94° |
| 2026-05-05 23:03 | 40.86055 | -74.30081 | 3313 ft | 274 kts | 106° |
| 2026-05-05 23:03 | 40.85691 | -74.27622 | 3099 ft | 270 kts | 108° |
| 2026-05-05 23:04 | 40.85334 | -74.25219 | 3052 ft | 260 kts | 108° |
| 2026-05-05 23:04 | 40.85014 | -74.22919 | 3061 ft | 247 kts | 107° |
| 2026-05-05 23:04 | 40.84712 | -74.20771 | 3030 ft | 234 kts | 112° |
| 2026-05-05 23:04 | 40.84055 | -74.18885 | 2689 ft | 221 kts | 137° |
| 2026-05-05 23:05 | 40.83089 | -74.17336 | 2441 ft | 218 kts | 137° |
| 2026-05-05 23:05 | 40.82163 | -74.15792 | 2393 ft | 208 kts | 137° |
| 2026-05-05 23:05 | 40.81306 | -74.14334 | 2483 ft | 198 kts | 138° |
| 2026-05-05 23:05 | 40.80463 | -74.12881 | 2666 ft | 200 kts | 137° |
| 2026-05-05 23:06 | 40.79561 | -74.11495 | 2828 ft | 193 kts | 153° |
| 2026-05-05 23:06 | 40.78388 | -74.10885 | 2783 ft | 175 kts | 184° |
| 2026-05-05 23:06 | 40.77275 | -74.11268 | 2553 ft | 164 kts | 212° |
| 2026-05-05 23:06 | 40.76302 | -74.11978 | 2289 ft | 156 kts | 209° |
| 2026-05-05 23:07 | 40.75347 | -74.12542 | 1830 ft | 148 kts | 219° |
| 2026-05-05 23:07 | 40.74460 | -74.13169 | 1216 ft | 142 kts | 219° |
| 2026-05-05 23:07 | 40.73618 | -74.13752 | 954 ft | 131 kts | 208° |
| 2026-05-05 23:07 | 40.72778 | -74.14263 | 747 ft | 135 kts | 205° |
| 2026-05-05 23:08 | 40.71923 | -74.14763 | 560 ft | 133 kts | 208° |
| 2026-05-05 23:08 | 40.71113 | -74.15264 | 334 ft | 126 kts | 216° |
| 2026-05-05 23:08 | 40.70325 | -74.15802 | 140 ft | 127 kts | 209° |
| 2026-05-05 23:08 | 40.69565 | -74.16279 | 28 ft | 111 kts | 208° |
| 2026-05-05 23:09 | 40.69074 | -74.16599 | 26 ft | 53 kts | 206° |
| 2026-05-05 23:09 | 40.68803 | -74.16788 | 21 ft | 38 kts | 220° |
| 2026-05-05 23:09 | 40.68675 | -74.17008 | 25 ft | 22 kts | 232° |
| 2026-05-05 23:09 | 40.68633 | -74.17176 | 26 ft | 17 kts | 290° |
| 2026-05-05 23:10 | 40.68679 | -74.17302 | 28 ft | 15 kts | 300° |
| 2026-05-05 23:10 | 40.68745 | -74.17338 | 27 ft | 12 kts | 22° |
| 2026-05-05 23:10 | 40.68837 | -74.17279 | 25 ft | 16 kts | 28° |
| 2026-05-05 23:10 | 40.68947 | -74.17207 | 22 ft | 20 kts | 26° |
| 2026-05-05 23:11 | 40.69065 | -74.17131 | 20 ft | 16 kts | 26° |
| 2026-05-05 23:11 | 40.69169 | -74.17068 | 21 ft | 17 kts | 24° |
| 2026-05-05 23:11 | 40.69286 | -74.17001 | 21 ft | 19 kts | 20° |
| 2026-05-05 23:11 | 40.69371 | -74.16977 | 23 ft | 11 kts | 3° |
| 2026-05-05 23:12 | 40.69456 | -74.16978 | 25 ft | 14 kts | 360° |
| 2026-05-05 23:12 | 40.69527 | -74.17027 | 23 ft | 13 kts | 266° |
| 2026-05-05 23:12 | 40.69520 | -74.17155 | 22 ft | 14 kts | 278° |
| 2026-05-05 23:12 | 40.69550 | -74.17223 | 22 ft | 6 kts | 314° |
| 2026-05-05 23:13 | 40.69560 | -74.17237 | 22 ft | 0 kts | 315° |